FVCP weather

Charles Prince Airport
Harare, Harare Metropolitan Province, Zimbabwe

Public forecast

Using degrees Celsius for public forecast. Weather courtesy of forecast.io.

METAR (pilot weather report)

Closest report is Robert Gabriel Mugabe International Airport, 14.5 nm (26.8 km) SE. Retrieved 2019/05/27 11:00 UTC (2 hours ago):

FVRG 271100Z VRB04KT CAVOK 21/05 Q1024 NOSIG

TAF (pilot weather forecast)

Forecast is more than 12 hours old.

Closest forecast is Robert Gabriel Mugabe International Airport, 14.5 nm (26.8 km) SE. Retrieved 2019/05/26 00:00 UTC (2 days ago):

TAF FVRG 262200Z 2700/2806 13007KT CAVOK BECMG 2707/2709 9999 BKN035 FM271200 /////KT CAVOK